createdAt,value
2023-04-30T00:00:14.182Z,2.85
2023-04-30T00:02:43.441Z,2.30
2023-04-30T00:05:14.271Z,1.80
2023-04-30T00:07:43.657Z,1.90
2023-04-30T00:10:13.020Z,1.55
2023-04-30T00:12:42.484Z,1.83
2023-04-30T00:15:12.913Z,1.55
2023-04-30T00:17:42.066Z,2.08
2023-04-30T00:20:14.631Z,2.10
2023-04-30T00:22:43.833Z,2.38
2023-04-30T00:25:12.976Z,2.15
2023-04-30T00:27:42.080Z,2.20
2023-04-30T00:30:11.645Z,2.50
2023-04-30T00:32:40.929Z,2.22
2023-04-30T00:35:12.357Z,1.90
2023-04-30T00:37:43.764Z,2.03
2023-04-30T00:40:13.963Z,2.10
2023-04-30T00:42:43.030Z,2.10
2023-04-30T00:45:12.824Z,2.50
2023-04-30T00:47:42.213Z,1.95
2023-04-30T00:50:16.052Z,3.10
2023-04-30T00:52:46.025Z,2.83
2023-04-30T00:55:15.431Z,1.80
2023-04-30T00:57:44.607Z,1.98
2023-04-30T01:00:15.088Z,2.22
2023-04-30T01:02:45.144Z,2.22
2023-04-30T01:05:16.136Z,3.10
2023-04-30T01:07:46.583Z,3.30
2023-04-30T01:10:16.876Z,2.83
2023-04-30T01:12:55.034Z,2.65
2023-04-30T01:15:30.026Z,3.40
2023-04-30T01:18:05.481Z,2.22
2023-04-30T01:20:37.057Z,2.80
2023-04-30T01:23:29.751Z,2.70
2023-04-30T01:26:15.692Z,3.97
2023-04-30T01:28:47.688Z,1.67
2023-04-30T01:31:19.952Z,2.85
2023-04-30T01:33:49.022Z,2.65
2023-04-30T01:36:41.625Z,2.83
2023-04-30T01:39:40.121Z,2.58
2023-04-30T01:42:14.342Z,2.25
2023-04-30T01:45:10.214Z,2.70
2023-04-30T01:47:43.690Z,3.40
2023-04-30T01:50:26.232Z,2.60
2023-04-30T01:52:59.547Z,3.70
2023-04-30T01:55:35.393Z,2.30
2023-04-30T01:58:08.601Z,2.22
2023-04-30T02:00:39.109Z,2.65
2023-04-30T02:03:08.320Z,3.20
2023-04-30T02:05:37.487Z,3.15
2023-04-30T02:08:07.250Z,2.85
2023-04-30T02:10:36.200Z,4.50
2023-04-30T02:13:05.435Z,2.92
2023-04-30T02:15:34.396Z,3.78
2023-04-30T02:18:04.843Z,2.60
2023-04-30T02:20:34.003Z,6.95
2023-04-30T02:23:02.960Z,3.80
2023-04-30T02:25:33.132Z,3.88
2023-04-30T02:28:02.162Z,4.30
2023-04-30T02:30:31.127Z,3.95
2023-04-30T02:33:00.079Z,3.17
2023-04-30T02:35:30.428Z,3.00
2023-04-30T02:37:59.506Z,3.40
2023-04-30T02:40:28.590Z,2.80
2023-04-30T02:42:57.537Z,2.65
2023-04-30T02:45:26.424Z,3.25
2023-04-30T02:47:55.508Z,3.78
2023-04-30T02:50:24.619Z,3.75
2023-04-30T02:52:56.214Z,3.45
2023-04-30T02:55:25.069Z,3.70
2023-04-30T02:57:54.126Z,3.45
2023-04-30T03:00:23.332Z,2.90
2023-04-30T03:02:52.607Z,3.20
2023-04-30T03:05:21.655Z,2.90
2023-04-30T03:07:50.623Z,2.60
2023-04-30T03:10:21.487Z,3.50
2023-04-30T03:12:50.495Z,2.80
2023-04-30T03:15:20.339Z,2.90
2023-04-30T03:17:49.212Z,2.85
2023-04-30T03:20:18.251Z,2.65
2023-04-30T03:22:47.176Z,3.88
2023-04-30T03:25:16.931Z,2.40
2023-04-30T03:27:47.175Z,4.35
2023-04-30T03:30:16.191Z,3.53
2023-04-30T03:32:45.369Z,3.20
2023-04-30T03:35:16.484Z,3.25
2023-04-30T03:37:45.493Z,3.05
2023-04-30T03:40:15.070Z,3.78
2023-04-30T03:42:43.949Z,2.90
2023-04-30T03:45:14.444Z,4.00
2023-04-30T03:47:44.204Z,3.65
2023-04-30T03:50:13.449Z,4.53
2023-04-30T03:52:42.516Z,3.50
2023-04-30T03:55:12.764Z,3.22
2023-04-30T03:57:42.764Z,4.38
2023-04-30T04:00:14.924Z,4.38
2023-04-30T04:02:46.653Z,2.95
2023-04-30T04:05:15.846Z,2.95
2023-04-30T04:07:46.623Z,3.70
2023-04-30T04:10:16.391Z,3.40
2023-04-30T04:12:45.341Z,4.38
2023-04-30T04:15:15.637Z,3.00
2023-04-30T04:17:44.832Z,3.42
2023-04-30T04:20:14.647Z,3.50
2023-04-30T04:22:45.820Z,3.30
2023-04-30T04:25:15.317Z,3.05
2023-04-30T04:27:46.239Z,3.70
2023-04-30T04:30:16.965Z,4.00
2023-04-30T04:32:48.527Z,3.38
2023-04-30T04:35:18.626Z,3.53
2023-04-30T04:37:47.778Z,3.20
2023-04-30T04:40:16.866Z,3.75
2023-04-30T04:42:45.803Z,3.33
2023-04-30T04:45:16.417Z,3.80
2023-04-30T04:47:45.636Z,3.30
2023-04-30T04:50:15.215Z,3.13
2023-04-30T04:52:44.530Z,3.45
2023-04-30T04:55:14.033Z,3.10
2023-04-30T04:57:43.449Z,3.55
2023-04-30T05:00:13.251Z,3.08
2023-04-30T05:02:43.648Z,3.95
2023-04-30T05:05:12.572Z,4.28
2023-04-30T05:07:41.951Z,4.32
2023-04-30T05:10:11.482Z,3.83
2023-04-30T05:12:40.620Z,2.80
2023-04-30T05:15:10.321Z,2.35
2023-04-30T05:17:39.276Z,3.20
2023-04-30T05:20:11.202Z,3.40
2023-04-30T05:22:42.303Z,4.15
2023-04-30T05:25:11.839Z,4.60
2023-04-30T05:27:41.082Z,4.30
2023-04-30T05:30:13.701Z,3.58
2023-04-30T05:32:42.714Z,5.53
2023-04-30T05:35:13.162Z,6.18
2023-04-30T05:37:42.165Z,4.18
2023-04-30T05:40:12.227Z,3.42
2023-04-30T05:42:43.601Z,4.55
2023-04-30T05:45:14.811Z,4.90
2023-04-30T05:47:43.832Z,4.30
2023-04-30T05:50:14.456Z,4.43
2023-04-30T05:52:43.378Z,4.90
2023-04-30T05:55:12.842Z,5.88
2023-04-30T05:57:41.849Z,3.00
2023-04-30T06:00:12.591Z,6.07
2023-04-30T06:02:41.679Z,4.05
2023-04-30T06:05:12.878Z,3.60
2023-04-30T06:07:45.294Z,3.28
2023-04-30T06:10:14.173Z,4.90
2023-04-30T06:12:43.128Z,14.57
2023-04-30T06:15:12.678Z,3.42
2023-04-30T06:17:41.810Z,3.30
2023-04-30T06:20:11.538Z,4.38
2023-04-30T06:22:41.244Z,3.58
2023-04-30T06:25:12.117Z,4.88
2023-04-30T06:27:41.089Z,4.15
2023-04-30T06:30:11.289Z,5.20
2023-04-30T06:32:41.609Z,7.82
2023-04-30T06:35:11.124Z,8.25
2023-04-30T06:37:40.422Z,3.35
2023-04-30T06:40:11.811Z,4.72
2023-04-30T06:42:40.743Z,16.13
2023-04-30T06:45:10.977Z,2.80
2023-04-30T06:47:41.875Z,4.07
2023-04-30T06:50:11.644Z,5.45
2023-04-30T06:52:40.775Z,3.08
2023-04-30T06:55:11.727Z,4.75
2023-04-30T06:57:41.038Z,7.18
2023-04-30T07:00:12.633Z,4.65
2023-04-30T07:02:41.715Z,3.80
2023-04-30T07:05:11.525Z,2.95
2023-04-30T07:07:40.583Z,3.95
2023-04-30T07:10:12.111Z,3.28
2023-04-30T07:12:41.291Z,2.90
2023-04-30T07:15:11.049Z,3.10
2023-04-30T07:17:41.917Z,4.30
2023-04-30T07:20:12.160Z,3.38
2023-04-30T07:22:41.088Z,2.83
2023-04-30T07:25:12.458Z,3.50
2023-04-30T07:27:41.622Z,3.80
2023-04-30T07:30:13.235Z,3.67
2023-04-30T07:32:42.868Z,4.25
2023-04-30T07:35:12.270Z,4.13
2023-04-30T07:37:41.665Z,4.05
2023-04-30T07:40:21.866Z,3.50
2023-04-30T07:42:54.351Z,4.22
2023-04-30T07:45:23.554Z,3.97
2023-04-30T07:47:52.469Z,4.50
2023-04-30T07:50:21.401Z,2.83
2023-04-30T07:52:51.419Z,3.17
2023-04-30T07:55:21.866Z,3.15
2023-04-30T07:57:50.869Z,3.50
2023-04-30T08:00:19.980Z,3.45
2023-04-30T08:02:49.917Z,3.47
2023-04-30T08:05:19.069Z,2.55
2023-04-30T08:07:47.997Z,4.68
2023-04-30T08:10:17.176Z,3.40
2023-04-30T08:12:47.682Z,2.90
2023-04-30T08:15:16.606Z,3.93
2023-04-30T08:17:45.549Z,3.10
2023-04-30T08:20:14.693Z,2.75
2023-04-30T08:22:43.814Z,2.58
2023-04-30T08:25:13.293Z,2.80
2023-04-30T08:27:42.267Z,2.90
2023-04-30T08:30:13.319Z,2.72
2023-04-30T08:32:42.281Z,2.97
2023-04-30T08:35:11.915Z,2.97
2023-04-30T08:37:40.842Z,3.58
2023-04-30T08:40:12.197Z,2.38
2023-04-30T08:42:46.463Z,2.00
2023-04-30T08:45:17.044Z,1.87
2023-04-30T08:47:47.611Z,5.50
2023-04-30T08:50:16.612Z,2.58
2023-04-30T08:52:46.020Z,2.50
2023-04-30T08:55:14.867Z,2.47
2023-04-30T08:57:43.787Z,2.63
2023-04-30T09:00:13.854Z,2.50
2023-04-30T09:02:45.516Z,3.10
2023-04-30T09:05:15.798Z,4.33
2023-04-30T09:10:20.392Z,2.53
2023-04-30T09:13:01.445Z,2.30
2023-04-30T09:15:30.794Z,2.60
2023-04-30T09:18:12.566Z,2.30
2023-04-30T09:20:56.331Z,1.87
2023-04-30T09:23:25.802Z,1.97
2023-04-30T09:25:54.829Z,3.10
2023-04-30T09:28:28.992Z,1.97
2023-04-30T09:30:59.514Z,3.03
2023-04-30T09:33:30.270Z,2.03
2023-04-30T09:36:09.770Z,2.20
2023-04-30T09:38:38.972Z,1.77
2023-04-30T09:41:08.988Z,1.80
2023-04-30T09:43:46.978Z,2.50
2023-04-30T09:46:16.638Z,1.90
2023-04-30T09:49:11.367Z,2.60
2023-04-30T09:51:56.601Z,2.43
2023-04-30T09:54:28.176Z,3.27
2023-04-30T09:56:58.241Z,4.10
2023-04-30T09:59:32.068Z,2.57
2023-04-30T10:02:02.197Z,3.20
2023-04-30T10:04:35.376Z,2.03
2023-04-30T10:07:07.954Z,2.70
2023-04-30T10:09:42.463Z,2.20
2023-04-30T10:12:16.749Z,3.10
2023-04-30T10:14:53.786Z,2.83
2023-04-30T10:17:26.066Z,2.77
2023-04-30T10:20:03.323Z,3.07
2023-04-30T10:22:32.592Z,2.50
2023-04-30T10:25:02.527Z,2.03
2023-04-30T10:27:33.340Z,2.80
2023-04-30T10:30:03.801Z,2.70
2023-04-30T10:32:40.125Z,2.20
2023-04-30T10:35:17.504Z,2.57
2023-04-30T10:37:55.017Z,3.20
2023-04-30T10:40:24.053Z,2.10
2023-04-30T10:42:56.164Z,3.10
2023-04-30T10:45:38.373Z,2.87
2023-04-30T10:48:08.617Z,2.13
2023-04-30T10:50:46.293Z,2.27
2023-04-30T10:53:17.002Z,3.20
2023-04-30T10:55:50.383Z,3.40
2023-04-30T10:58:27.505Z,2.73
2023-04-30T11:01:05.308Z,2.10
2023-04-30T11:03:36.336Z,2.90
2023-04-30T11:06:14.873Z,2.23
2023-04-30T11:08:46.548Z,2.10
2023-04-30T11:11:21.901Z,2.00
2023-04-30T11:14:00.874Z,3.80
2023-04-30T11:16:32.066Z,2.23
2023-04-30T11:19:11.322Z,2.60
2023-04-30T11:22:04.408Z,3.07
2023-04-30T11:24:53.481Z,2.73
2023-04-30T11:27:24.315Z,2.83
2023-04-30T11:29:54.919Z,2.37
2023-04-30T11:32:26.712Z,2.67
2023-04-30T11:34:56.801Z,3.00
2023-04-30T11:37:33.095Z,3.00
2023-04-30T11:40:04.043Z,4.77
2023-04-30T11:42:35.168Z,3.80
2023-04-30T11:45:06.853Z,3.73
2023-04-30T11:47:43.749Z,2.60
2023-04-30T11:50:14.594Z,2.80
2023-04-30T11:52:50.489Z,3.10
2023-04-30T11:55:21.882Z,3.60
2023-04-30T11:57:53.216Z,3.30
2023-04-30T12:00:23.732Z,2.80
2023-04-30T12:02:52.951Z,2.67
2023-04-30T12:05:23.716Z,2.90
2023-04-30T12:07:56.254Z,3.40
2023-04-30T12:10:25.941Z,3.40
2023-04-30T12:12:55.459Z,2.90
2023-04-30T12:15:27.233Z,2.80
2023-04-30T12:17:57.922Z,2.60
2023-04-30T12:20:29.245Z,2.53
2023-04-30T12:23:01.118Z,2.70
2023-04-30T12:25:30.841Z,2.80
2023-04-30T12:28:01.496Z,2.90
2023-04-30T12:30:30.651Z,2.33
2023-04-30T12:33:01.102Z,2.50
2023-04-30T12:35:32.665Z,2.77
2023-04-30T12:38:11.588Z,3.30
2023-04-30T12:40:41.080Z,2.80
2023-04-30T12:43:11.420Z,3.00
2023-04-30T12:45:48.780Z,2.97
2023-04-30T12:48:21.306Z,2.70
2023-04-30T12:50:54.455Z,2.33
2023-04-30T12:53:25.147Z,3.30
2023-04-30T12:56:15.269Z,2.80
2023-04-30T12:58:47.595Z,3.20
2023-04-30T13:01:20.548Z,3.13
2023-04-30T13:03:49.696Z,2.40
2023-04-30T13:06:19.134Z,2.47
2023-04-30T13:08:57.804Z,2.67
2023-04-30T13:11:28.470Z,2.83
2023-04-30T13:13:57.841Z,3.30
2023-04-30T13:16:27.487Z,2.33
2023-04-30T13:18:56.603Z,2.50
2023-04-30T13:21:26.081Z,1.93
2023-04-30T13:23:58.370Z,2.43
2023-04-30T13:26:28.889Z,2.90
2023-04-30T13:28:57.869Z,2.60
2023-04-30T13:31:27.201Z,2.80
2023-04-30T13:33:56.237Z,2.63
2023-04-30T13:36:25.444Z,2.47
2023-04-30T13:38:55.875Z,3.17
2023-04-30T13:41:26.178Z,2.80
2023-04-30T13:43:55.060Z,3.03
2023-04-30T13:46:25.116Z,2.83
2023-04-30T13:48:54.167Z,3.30
2023-04-30T13:51:23.191Z,2.87
2023-04-30T13:53:52.163Z,3.57
2023-04-30T13:56:22.487Z,2.67
2023-04-30T13:58:51.425Z,2.23
2023-04-30T14:01:20.361Z,2.87
2023-04-30T14:03:49.452Z,2.83
2023-04-30T14:06:18.576Z,2.87
2023-04-30T14:08:47.562Z,2.63
2023-04-30T14:11:16.517Z,2.47
2023-04-30T14:13:47.238Z,2.47
2023-04-30T14:16:16.363Z,2.87
2023-04-30T14:18:45.276Z,3.67
2023-04-30T14:21:14.223Z,2.60
2023-04-30T14:23:46.120Z,2.27
2023-04-30T14:26:15.631Z,2.70
2023-04-30T14:28:46.018Z,4.07
2023-04-30T14:31:15.192Z,2.93
2023-04-30T14:33:44.432Z,2.57
2023-04-30T14:36:13.905Z,3.13
2023-04-30T14:38:42.755Z,3.10
2023-04-30T14:41:11.680Z,4.57
2023-04-30T14:43:41.376Z,3.30
2023-04-30T14:46:11.948Z,4.00
2023-04-30T14:48:41.074Z,2.97
2023-04-30T14:51:09.981Z,2.20
2023-04-30T14:53:38.924Z,3.13
2023-04-30T14:56:08.446Z,2.07
2023-04-30T14:58:38.150Z,3.10
2023-04-30T15:01:07.365Z,3.53
2023-04-30T15:03:38.336Z,3.07
2023-04-30T15:06:07.632Z,2.43
2023-04-30T15:08:36.638Z,3.17
2023-04-30T15:11:09.691Z,2.20
2023-04-30T15:13:39.014Z,3.63
2023-04-30T15:16:08.665Z,2.93
2023-04-30T15:18:39.914Z,2.80
2023-04-30T15:21:09.018Z,2.20
2023-04-30T15:23:38.031Z,2.60
2023-04-30T15:26:07.631Z,2.63
2023-04-30T15:28:36.938Z,3.17
2023-04-30T15:31:06.491Z,3.83
2023-04-30T15:33:39.726Z,2.60
2023-04-30T15:36:11.324Z,2.73
2023-04-30T15:38:40.247Z,3.20
2023-04-30T15:41:09.261Z,2.20
2023-04-30T15:43:38.191Z,2.23
2023-04-30T15:46:07.511Z,2.40
2023-04-30T15:48:36.367Z,2.03
2023-04-30T15:51:05.670Z,2.63
2023-04-30T15:53:36.174Z,3.00
2023-04-30T15:56:06.438Z,2.10
2023-04-30T15:58:35.580Z,2.40
2023-04-30T16:01:04.956Z,2.20
2023-04-30T16:03:34.345Z,3.37
2023-04-30T16:06:03.901Z,2.47
2023-04-30T16:08:34.200Z,1.80
2023-04-30T16:11:05.716Z,2.20
2023-04-30T16:13:36.790Z,2.23
2023-04-30T16:16:09.059Z,2.57
2023-04-30T16:18:39.384Z,2.43
2023-04-30T16:21:10.174Z,2.40
2023-04-30T16:23:40.721Z,2.40
2023-04-30T16:26:12.153Z,2.03
2023-04-30T16:28:41.207Z,2.80
2023-04-30T16:31:12.242Z,2.20
2023-04-30T16:33:42.081Z,2.33
2023-04-30T16:36:12.494Z,3.10
2023-04-30T16:38:42.206Z,3.23
2023-04-30T16:41:13.229Z,2.20
2023-04-30T16:43:47.509Z,2.90
2023-04-30T16:46:19.886Z,1.97
2023-04-30T16:48:52.815Z,2.47
2023-04-30T16:51:22.109Z,3.30
2023-04-30T16:53:51.107Z,3.40
2023-04-30T16:56:21.546Z,2.23
2023-04-30T16:58:50.490Z,4.60
2023-04-30T17:01:19.458Z,3.70
2023-04-30T17:03:48.865Z,2.00
2023-04-30T17:06:18.105Z,2.57
2023-04-30T17:08:47.335Z,3.50
2023-04-30T17:11:19.291Z,3.53
2023-04-30T17:13:49.897Z,3.67
2023-04-30T17:16:19.030Z,3.30
2023-04-30T17:18:47.932Z,3.37
2023-04-30T17:21:17.110Z,2.67
2023-04-30T17:23:46.213Z,2.90
2023-04-30T17:26:15.127Z,2.77
2023-04-30T17:28:44.102Z,3.70
2023-04-30T17:31:14.476Z,4.10
2023-04-30T17:33:45.419Z,3.70
2023-04-30T17:36:15.884Z,2.90
2023-04-30T17:38:45.238Z,3.53
2023-04-30T17:41:15.415Z,3.10
2023-04-30T17:43:44.329Z,3.00
2023-04-30T17:46:14.834Z,3.17
2023-04-30T17:48:43.821Z,3.07
2023-04-30T17:51:12.917Z,2.23
2023-04-30T17:53:41.951Z,3.30
2023-04-30T17:56:11.059Z,2.30
2023-04-30T17:58:40.336Z,3.67
2023-04-30T18:01:09.492Z,2.97
2023-04-30T18:03:40.184Z,2.57
2023-04-30T18:06:10.419Z,3.67
2023-04-30T18:08:39.551Z,2.47
2023-04-30T18:11:09.541Z,3.50
2023-04-30T18:13:38.627Z,3.53
2023-04-30T18:16:08.239Z,3.40
2023-04-30T18:18:39.010Z,3.67
2023-04-30T18:21:08.678Z,3.77
2023-04-30T18:23:37.876Z,4.30
2023-04-30T18:26:07.487Z,4.03
2023-04-30T18:28:38.988Z,4.17
2023-04-30T18:31:17.789Z,3.60
2023-04-30T18:33:48.439Z,4.20
2023-04-30T18:36:17.578Z,3.67
2023-04-30T18:38:46.863Z,3.97
2023-04-30T18:41:16.072Z,4.60
2023-04-30T18:43:45.704Z,5.10
2023-04-30T18:46:15.108Z,6.13
2023-04-30T18:48:45.301Z,4.40
2023-04-30T18:51:16.059Z,4.27
2023-04-30T18:53:47.188Z,5.10
2023-04-30T18:56:16.393Z,5.07
2023-04-30T18:58:47.846Z,4.40
2023-04-30T19:01:18.192Z,5.87
2023-04-30T19:03:47.498Z,5.20
2023-04-30T19:06:18.266Z,6.10
2023-04-30T19:08:47.703Z,5.70
2023-04-30T19:11:17.206Z,6.47
2023-04-30T19:13:47.135Z,7.07
2023-04-30T19:16:16.647Z,6.70
2023-04-30T19:18:45.886Z,8.77
2023-04-30T19:21:16.593Z,7.60
2023-04-30T19:23:46.280Z,9.60
2023-04-30T19:26:15.679Z,10.40
2023-04-30T19:28:44.666Z,10.60
2023-04-30T19:31:13.664Z,10.83
2023-04-30T19:33:43.164Z,8.33
2023-04-30T19:36:12.269Z,10.23
2023-04-30T19:38:42.910Z,8.70
2023-04-30T19:41:12.571Z,9.90
2023-04-30T19:43:41.558Z,9.57
2023-04-30T19:46:10.943Z,10.70
2023-04-30T19:48:40.016Z,12.87
2023-04-30T19:51:09.373Z,15.70
2023-04-30T19:53:38.498Z,17.17
2023-04-30T19:56:09.291Z,18.07
2023-04-30T19:58:38.493Z,16.83
2023-04-30T20:01:07.777Z,14.25
2023-04-30T20:03:38.375Z,13.50
2023-04-30T20:06:10.980Z,13.20
2023-04-30T20:08:40.254Z,12.43
2023-04-30T20:11:10.692Z,14.63
2023-04-30T20:13:39.788Z,14.13
2023-04-30T20:16:12.586Z,12.82
2023-04-30T20:18:42.724Z,12.60
2023-04-30T20:21:12.064Z,13.63
2023-04-30T20:23:41.188Z,13.52
2023-04-30T20:26:11.820Z,12.73
2023-04-30T20:28:40.922Z,12.15
2023-04-30T20:31:10.833Z,13.75
2023-04-30T20:33:41.591Z,11.88
2023-04-30T20:36:10.653Z,12.75
2023-04-30T20:38:40.175Z,13.82
2023-04-30T20:41:10.919Z,13.35
2023-04-30T20:43:40.280Z,14.70
2023-04-30T20:46:09.922Z,15.18
2023-04-30T20:48:39.387Z,11.80
2023-04-30T20:51:09.003Z,12.35
2023-04-30T20:53:38.125Z,11.38
2023-04-30T20:56:07.397Z,11.65
2023-04-30T20:58:37.814Z,11.68
2023-04-30T21:01:07.230Z,12.20
2023-04-30T21:03:37.091Z,11.32
2023-04-30T21:06:07.414Z,12.43
2023-04-30T21:08:36.477Z,10.25
2023-04-30T21:11:05.576Z,10.05
2023-04-30T21:13:36.092Z,9.18
2023-04-30T21:16:05.531Z,8.25
2023-04-30T21:18:37.714Z,10.57
2023-04-30T21:24:02.831Z,9.15
2023-04-30T21:29:47.497Z,9.02
2023-04-30T21:32:34.003Z,9.88
2023-04-30T21:35:17.445Z,10.48
2023-04-30T21:37:54.175Z,9.00
2023-04-30T21:40:33.847Z,8.93
2023-04-30T21:43:33.476Z,9.55
2023-04-30T21:46:39.844Z,9.32
2023-04-30T21:53:27.366Z,9.13
2023-04-30T21:56:08.875Z,11.32
2023-04-30T21:58:59.835Z,12.23
2023-04-30T22:05:25.343Z,10.48
2023-04-30T22:08:06.670Z,11.65
2023-04-30T22:10:42.734Z,13.13
2023-04-30T22:13:29.444Z,11.38
2023-04-30T22:15:59.141Z,11.05
2023-04-30T22:18:45.464Z,10.85
2023-04-30T22:21:23.250Z,11.00
2023-04-30T22:24:05.705Z,11.60
2023-04-30T22:29:35.476Z,11.55
2023-04-30T22:32:04.834Z,11.63
2023-04-30T22:34:38.672Z,12.40
2023-04-30T22:37:07.739Z,11.55
2023-04-30T22:39:36.792Z,11.48
2023-04-30T22:42:06.308Z,12.30
2023-04-30T22:44:36.633Z,10.63
2023-04-30T22:47:06.294Z,12.30
2023-04-30T22:49:37.771Z,11.93
2023-04-30T22:52:07.273Z,12.85
2023-04-30T22:54:36.576Z,12.75
2023-04-30T22:57:05.676Z,11.73
2023-04-30T22:59:39.492Z,12.23
2023-04-30T23:02:08.702Z,11.68
2023-04-30T23:04:39.285Z,12.25
2023-04-30T23:07:08.329Z,12.02
2023-04-30T23:09:37.416Z,13.00
2023-04-30T23:12:06.907Z,11.48
2023-04-30T23:14:36.013Z,13.00
2023-04-30T23:17:06.632Z,12.38
2023-04-30T23:19:37.414Z,13.32
2023-04-30T23:22:06.801Z,12.48
2023-04-30T23:24:37.518Z,11.38
2023-04-30T23:27:07.258Z,10.25
2023-04-30T23:29:36.664Z,11.18
2023-04-30T23:32:05.960Z,9.95
2023-04-30T23:34:35.102Z,9.43
2023-04-30T23:37:05.470Z,9.57
2023-04-30T23:39:34.709Z,10.48
2023-04-30T23:42:03.667Z,9.00
2023-04-30T23:44:32.859Z,10.48
2023-04-30T23:47:02.865Z,10.00
2023-04-30T23:49:31.932Z,9.05
2023-04-30T23:52:00.943Z,9.98
2023-04-30T23:54:31.693Z,10.35
2023-04-30T23:57:00.817Z,9.02
2023-04-30T23:59:29.781Z,10.27
